createdAt,value
2022-07-25T00:01:39.288Z,22.30
2022-07-25T00:06:44.290Z,22.30
2022-07-25T00:11:47.935Z,22.20
2022-07-25T00:16:53.173Z,22.00
2022-07-25T00:21:57.674Z,22.00
2022-07-25T00:27:01.254Z,21.90
2022-07-25T00:32:07.059Z,21.80
2022-07-25T00:37:10.695Z,21.70
2022-07-25T00:42:14.242Z,21.60
2022-07-25T00:47:19.322Z,21.50
2022-07-25T00:52:23.919Z,21.40
2022-07-25T00:57:27.861Z,21.30
2022-07-25T01:02:32.903Z,21.30
2022-07-25T01:07:37.860Z,21.30
2022-07-25T01:12:50.629Z,21.20
2022-07-25T01:17:55.774Z,21.30
2022-07-25T01:23:01.678Z,21.30
2022-07-25T01:28:05.758Z,21.30
2022-07-25T01:33:09.314Z,21.30
2022-07-25T01:38:14.861Z,21.30
2022-07-25T01:43:18.488Z,21.30
2022-07-25T01:48:22.102Z,21.40
2022-07-25T01:53:27.039Z,21.30
2022-07-25T01:58:31.080Z,21.40
2022-07-25T02:03:34.631Z,21.40
2022-07-25T02:08:39.705Z,21.40
2022-07-25T02:13:43.303Z,21.40
2022-07-25T02:18:47.684Z,21.40
2022-07-25T02:23:52.565Z,21.30
2022-07-25T02:28:56.201Z,21.30
2022-07-25T02:33:59.786Z,21.30
2022-07-25T02:39:05.599Z,21.30
2022-07-25T02:44:09.678Z,21.30
2022-07-25T02:49:13.608Z,21.30
2022-07-25T02:54:20.081Z,21.30
2022-07-25T02:59:23.674Z,21.40
2022-07-25T03:04:27.259Z,21.40
2022-07-25T03:09:32.305Z,21.40
2022-07-25T03:14:36.015Z,21.40
2022-07-25T03:19:39.694Z,21.40
2022-07-25T03:24:44.830Z,21.40
2022-07-25T03:29:48.417Z,21.40
2022-07-25T03:34:51.991Z,21.50
2022-07-25T03:39:57.049Z,21.60
2022-07-25T03:45:00.728Z,21.60
2022-07-25T03:50:04.607Z,21.60
2022-07-25T03:55:11.446Z,21.60
2022-07-25T04:00:15.462Z,21.60
2022-07-25T04:05:19.218Z,21.60
2022-07-25T04:10:24.353Z,21.70
2022-07-25T04:15:28.086Z,21.70
2022-07-25T04:20:34.087Z,21.70
2022-07-25T04:25:39.329Z,21.70
2022-07-25T04:30:45.405Z,21.70
2022-07-25T04:35:49.763Z,21.60
2022-07-25T04:40:54.925Z,21.70
2022-07-25T04:45:58.744Z,21.60
2022-07-25T04:51:02.454Z,21.60
2022-07-25T04:56:08.239Z,21.60
2022-07-25T05:01:11.999Z,21.70
2022-07-25T05:06:15.981Z,21.70
2022-07-25T05:11:21.927Z,21.70
2022-07-25T05:16:26.078Z,21.70
2022-07-25T05:21:29.751Z,21.70
2022-07-25T05:26:34.929Z,21.80
2022-07-25T05:31:38.557Z,21.90
2022-07-25T05:36:47.044Z,21.90
2022-07-25T05:41:52.587Z,22.00
2022-07-25T05:46:56.307Z,22.00
2022-07-25T05:51:59.989Z,22.10
2022-07-25T05:57:05.310Z,22.10
2022-07-25T06:02:09.280Z,22.10
2022-07-25T06:07:16.805Z,22.00
2022-07-25T06:12:24.296Z,21.90
2022-07-25T06:17:32.352Z,21.90
2022-07-25T06:22:36.922Z,21.90
2022-07-25T06:27:42.220Z,21.80
2022-07-25T06:32:45.875Z,21.80
2022-07-25T06:37:49.615Z,21.90
2022-07-25T06:42:54.702Z,22.00
2022-07-25T06:47:58.326Z,22.00
2022-07-25T06:53:02.140Z,21.90
2022-07-25T06:58:07.292Z,21.90
2022-07-25T07:03:11.127Z,22.10
2022-07-25T07:08:14.823Z,22.30
2022-07-25T07:13:24.099Z,22.30
2022-07-25T07:18:28.177Z,22.10
2022-07-25T07:23:31.895Z,22.10
2022-07-25T07:28:37.636Z,22.20
2022-07-25T07:33:41.648Z,22.30
2022-07-25T07:38:45.685Z,22.40
2022-07-25T07:43:50.726Z,22.60
2022-07-25T07:48:54.383Z,22.80
2022-07-25T07:54:27.214Z,23.00
2022-07-25T07:59:32.243Z,23.10
2022-07-25T08:04:35.901Z,23.20
2022-07-25T08:09:39.620Z,23.20
2022-07-25T08:14:44.709Z,23.20
2022-07-25T08:19:48.336Z,23.30
2022-07-25T08:24:51.986Z,23.40
2022-07-25T08:29:58.755Z,23.40
2022-07-25T08:35:03.808Z,23.40
2022-07-25T08:40:11.022Z,23.40
2022-07-25T08:45:17.912Z,23.50
2022-07-25T08:50:23.930Z,23.60
2022-07-25T08:55:28.807Z,23.70
2022-07-25T09:00:33.864Z,23.60
2022-07-25T09:05:38.345Z,23.90
2022-07-25T09:10:47.213Z,24.50
2022-07-25T09:15:54.241Z,24.90
2022-07-25T09:20:59.732Z,25.20
2022-07-25T09:26:05.220Z,25.50
2022-07-25T09:31:10.797Z,25.50
2022-07-25T09:36:14.805Z,25.50
2022-07-25T09:41:18.524Z,25.60
2022-07-25T09:46:31.942Z,25.70
2022-07-25T09:51:35.932Z,25.70
2022-07-25T09:56:39.706Z,25.90
2022-07-25T10:01:53.276Z,25.90
2022-07-25T10:07:04.620Z,25.70
2022-07-25T10:12:10.561Z,25.70
2022-07-25T10:17:23.258Z,25.80
2022-07-25T10:22:55.129Z,26.00
2022-07-25T10:28:08.280Z,26.10
2022-07-25T10:33:16.013Z,26.10
2022-07-25T10:38:26.268Z,25.80
2022-07-25T10:43:30.034Z,25.50
2022-07-25T10:48:35.322Z,25.50
2022-07-25T10:53:40.440Z,25.80
2022-07-25T10:58:50.006Z,26.00
2022-07-25T11:03:56.304Z,26.10
2022-07-25T11:09:01.210Z,26.60
2022-07-25T11:14:05.945Z,26.90
2022-07-25T11:19:20.202Z,26.80
2022-07-25T11:24:24.154Z,27.40
2022-07-25T11:29:28.166Z,28.20
2022-07-25T11:34:34.200Z,29.10
2022-07-25T11:39:41.606Z,29.20
2022-07-25T11:44:47.988Z,28.90
2022-07-25T11:49:54.945Z,28.80
2022-07-25T11:55:01.018Z,28.70
2022-07-25T12:00:09.309Z,28.20
2022-07-25T12:05:17.208Z,28.30
2022-07-25T12:10:24.657Z,28.70
2022-07-25T12:15:29.803Z,28.90
2022-07-25T12:20:36.808Z,29.40
2022-07-25T12:25:42.765Z,29.40
2022-07-25T12:30:55.945Z,29.50
2022-07-25T12:36:06.576Z,29.60
2022-07-25T12:41:17.462Z,30.00
2022-07-25T12:46:21.611Z,30.40
2022-07-25T12:51:26.871Z,31.00
2022-07-25T12:56:30.562Z,31.30
2022-07-25T13:01:34.281Z,31.60
2022-07-25T13:06:39.571Z,31.00
2022-07-25T13:11:43.428Z,30.60
2022-07-25T13:16:48.018Z,30.30
2022-07-25T13:21:53.119Z,30.10
2022-07-25T13:26:56.772Z,30.00
2022-07-25T13:32:00.544Z,30.00
2022-07-25T13:37:05.692Z,29.60
2022-07-25T13:42:09.605Z,29.50
2022-07-25T13:47:13.354Z,29.40
2022-07-25T13:52:18.403Z,29.40
2022-07-25T13:57:22.058Z,29.20
2022-07-25T14:02:25.772Z,28.90
2022-07-25T14:07:30.912Z,28.50
2022-07-25T14:12:34.782Z,28.30
2022-07-25T14:17:39.315Z,28.00
2022-07-25T14:22:44.774Z,27.90
2022-07-25T14:27:48.445Z,27.80
2022-07-25T14:32:52.118Z,27.70
2022-07-25T14:37:57.335Z,27.60
2022-07-25T14:43:00.995Z,27.40
2022-07-25T14:48:06.347Z,27.50
2022-07-25T14:53:12.767Z,27.40
2022-07-25T14:58:16.545Z,27.20
2022-07-25T15:03:20.148Z,27.10
2022-07-25T15:08:25.216Z,27.10
2022-07-25T15:13:31.488Z,27.00
2022-07-25T15:18:52.258Z,27.00
2022-07-25T15:24:00.841Z,26.90
2022-07-25T15:29:07.908Z,26.70
2022-07-25T15:34:12.739Z,26.70
2022-07-25T15:39:19.543Z,26.70
2022-07-25T15:44:23.222Z,26.70
2022-07-25T15:49:26.889Z,26.70
2022-07-25T15:54:31.985Z,26.70
2022-07-25T15:59:35.724Z,26.70
2022-07-25T16:04:39.637Z,26.70
2022-07-25T16:09:44.714Z,26.70
2022-07-25T16:14:48.449Z,26.60
2022-07-25T16:19:53.980Z,26.50
2022-07-25T16:25:01.184Z,26.30
2022-07-25T16:30:05.343Z,26.30
2022-07-25T16:35:09.406Z,26.20
2022-07-25T16:40:14.784Z,26.00
2022-07-25T16:45:18.487Z,25.90
2022-07-25T16:50:22.582Z,25.90
2022-07-25T16:55:27.793Z,25.80
2022-07-25T17:00:32.553Z,25.90
2022-07-25T17:05:36.734Z,25.80
2022-07-25T17:10:41.667Z,25.80
2022-07-25T17:15:45.578Z,25.80
2022-07-25T17:20:49.410Z,25.70
2022-07-25T17:25:54.669Z,25.70
2022-07-25T17:30:58.368Z,25.60
2022-07-25T17:36:02.104Z,25.60
2022-07-25T17:41:07.511Z,25.40
2022-07-25T17:46:13.586Z,25.10
2022-07-25T17:51:17.328Z,25.00
2022-07-25T17:56:22.475Z,24.90
2022-07-25T18:02:17.965Z,24.90
2022-07-25T18:07:21.814Z,24.90
2022-07-25T18:12:29.526Z,25.00
2022-07-25T18:17:33.643Z,25.00
2022-07-25T18:22:38.224Z,25.00
2022-07-25T18:27:44.350Z,25.00
2022-07-25T18:32:48.262Z,25.00
2022-07-25T18:37:53.965Z,24.90
2022-07-25T18:42:59.328Z,24.80
2022-07-25T18:48:03.028Z,24.70
2022-07-25T18:53:06.837Z,24.70
2022-07-25T18:58:15.926Z,24.60
2022-07-25T19:03:40.885Z,24.60
2022-07-25T19:08:46.077Z,24.50
2022-07-25T19:13:51.655Z,24.40
2022-07-25T19:18:55.699Z,24.40
2022-07-25T19:23:59.383Z,24.20
2022-07-25T19:29:07.418Z,24.20
2022-07-25T19:34:11.604Z,24.10
2022-07-25T19:39:15.843Z,24.00
2022-07-25T19:44:21.016Z,24.00
2022-07-25T19:49:24.671Z,23.90
2022-07-25T19:54:28.626Z,23.70
2022-07-25T19:59:33.790Z,23.60
2022-07-25T20:04:37.574Z,23.50
2022-07-25T20:09:41.570Z,23.50
2022-07-25T20:14:46.606Z,23.40
2022-07-25T20:19:51.803Z,23.30
2022-07-25T20:25:10.746Z,23.30
2022-07-25T20:30:16.355Z,23.30
2022-07-25T20:48:22.484Z,22.50
2022-07-25T20:53:33.442Z,23.00
2022-07-25T20:58:38.363Z,23.60
2022-07-25T21:04:13.090Z,22.90
2022-07-25T21:09:18.393Z,22.50
2022-07-25T21:14:22.092Z,22.70
2022-07-25T21:19:25.789Z,22.60
2022-07-25T21:24:30.855Z,22.60
2022-07-25T21:29:34.558Z,22.50
2022-07-25T21:34:38.735Z,22.40
2022-07-25T21:39:44.062Z,22.40
2022-07-25T21:44:47.719Z,22.40
2022-07-25T21:50:08.854Z,22.40
2022-07-25T21:55:13.911Z,22.30
2022-07-25T22:00:17.939Z,22.30
2022-07-25T22:05:21.555Z,22.30
2022-07-25T22:10:26.661Z,22.20
2022-07-25T22:15:30.438Z,22.20
2022-07-25T22:20:34.172Z,22.20
2022-07-25T22:25:39.186Z,22.10
2022-07-25T22:30:42.778Z,22.10
2022-07-25T22:35:46.401Z,22.10
2022-07-25T22:40:51.498Z,22.10
2022-07-25T22:45:55.203Z,22.00
2022-07-25T22:50:58.902Z,22.00
2022-07-25T22:56:03.932Z,22.00
2022-07-25T23:01:08.066Z,21.90
2022-07-25T23:06:13.003Z,21.90
2022-07-25T23:11:18.506Z,21.90
2022-07-25T23:16:22.270Z,21.90
2022-07-25T23:21:26.506Z,21.90
2022-07-25T23:26:31.518Z,21.90
2022-07-25T23:31:35.429Z,21.80
2022-07-25T23:36:39.129Z,21.70
2022-07-25T23:41:44.491Z,21.70
2022-07-25T23:46:48.277Z,21.60
2022-07-25T23:51:52.493Z,21.50
2022-07-25T23:56:57.467Z,21.40
